Time;durP1;ratioP1;P1;durP2;ratioP2;P2;SDS_P1;SDS_P2;PMS_P1;PMS_P2;Temp;Humidity;BMP_temperature;BMP_pressure;BME280_temperature;BME280_humidity;BME280_pressure;Samples;Min_cycle;Max_cycle;Signal;HPM_P1;HPM_P2
2023/04/22 03:03:00;;;;;;;8.15;4.00;;;9.50;99.90;;;;;;5087636;23;88679;-70
2023/04/22 03:05:25;;;;;;;10.63;3.88;;;9.50;99.90;;;;;;4891989;28;87639;-70
2023/04/22 03:07:52;;;;;;;7.55;3.53;;;9.40;99.90;;;;;;4894578;28;87475;-69
2023/04/22 03:10:18;;;;;;;7.22;3.95;;;9.40;99.90;;;;;;4898833;28;87406;-69
2023/04/22 03:12:43;;;;;;;8.32;4.60;;;9.30;99.90;;;;;;4896526;28;89063;-69
2023/04/22 03:15:09;;;;;;;8.88;4.00;;;9.30;99.90;;;;;;4890270;28;86986;-69
2023/04/22 03:17:35;;;;;;;7.57;3.90;;;9.30;99.90;;;;;;4881006;28;87448;-69
2023/04/22 03:20:01;;;;;;;9.40;4.88;;;9.30;99.90;;;;;;4895780;28;87339;-69
2023/04/22 03:22:26;;;;;;;9.10;4.28;;;9.20;99.90;;;;;;4894153;28;89177;-69
2023/04/22 03:24:52;;;;;;;7.45;3.60;;;9.20;99.90;;;;;;4897111;28;89282;-68
2023/04/22 03:27:18;;;;;;;7.72;4.32;;;9.20;99.90;;;;;;4895090;28;89016;-70
2023/04/22 03:29:43;;;;;;;7.45;4.13;;;9.20;99.90;;;;;;4895121;28;87227;-69
2023/04/22 03:32:09;;;;;;;9.85;5.10;;;9.10;99.90;;;;;;4895165;28;87990;-69
2023/04/22 03:34:35;;;;;;;11.65;5.45;;;9.10;99.90;;;;;;4893258;28;88315;-69
2023/04/22 03:37:01;;;;;;;11.55;6.30;;;9.00;99.90;;;;;;4894714;28;87420;-70
2023/04/22 03:39:26;;;;;;;9.88;5.57;;;9.00;99.90;;;;;;4894313;28;86751;-69
2023/04/22 03:41:52;;;;;;;8.57;4.72;;;9.00;99.90;;;;;;4896578;28;88626;-68
2023/04/22 03:44:17;;;;;;;11.32;5.80;;;8.90;99.90;;;;;;4896171;28;87773;-69
2023/04/22 03:46:43;;;;;;;9.95;5.07;;;8.90;99.90;;;;;;4896192;28;88581;-69
2023/04/22 03:49:09;;;;;;;8.80;4.93;;;8.80;99.90;;;;;;4890114;28;87711;-69
2023/04/22 03:51:35;;;;;;;8.10;4.93;;;8.80;99.90;;;;;;4895078;28;88673;-69
2023/04/22 03:54:00;;;;;;;9.13;4.78;;;8.80;99.90;;;;;;4894470;28;88074;-70
2023/04/22 03:56:26;;;;;;;9.43;4.38;;;8.70;99.90;;;;;;4894040;28;88951;-69
2023/04/22 03:58:51;;;;;;;8.27;4.60;;;8.70;99.90;;;;;;4896562;28;88226;-69
2023/04/22 04:01:17;;;;;;;8.45;4.10;;;8.60;99.90;;;;;;4886496;28;87728;-69
2023/04/22 04:03:43;;;;;;;8.85;4.53;;;8.60;99.90;;;;;;4871031;28;88178;-69
2023/04/22 04:06:09;;;;;;;8.95;4.68;;;8.60;99.90;;;;;;4867550;28;87358;-70
2023/04/22 04:08:34;;;;;;;10.60;5.47;;;8.60;99.90;;;;;;4875295;28;87687;-69
2023/04/22 04:11:00;;;;;;;11.68;6.25;;;8.60;99.90;;;;;;4875945;28;89045;-69
2023/04/22 04:13:30;;;;;;;14.77;6.43;;;8.60;99.90;;;;;;4875492;28;88775;-69
2023/04/22 04:15:58;;;;;;;11.70;6.13;;;8.60;99.90;;;;;;4876476;28;89056;-69
2023/04/22 04:18:25;;;;;;;11.50;6.78;;;8.60;99.90;;;;;;4876214;28;87711;-69
2023/04/22 04:20:51;;;;;;;11.63;6.13;;;8.70;99.90;;;;;;4872138;28;89208;-68
2023/04/22 04:23:16;;;;;;;15.80;8.20;;;8.70;99.90;;;;;;4872471;28;87531;-69
2023/04/22 04:25:42;;;;;;;15.52;7.43;;;8.70;99.90;;;;;;4876501;28;87927;-68
2023/04/22 04:28:10;;;;;;;13.50;6.40;;;8.70;99.90;;;;;;4870816;28;87095;-68
2023/04/22 04:30:36;;;;;;;12.45;7.28;;;8.70;99.90;;;;;;4876369;28;88208;-68
2023/04/22 04:33:05;;;;;;;15.48;7.55;;;8.80;99.90;;;;;;4876913;28;88094;-69
2023/04/22 04:35:33;;;;;;;15.00;7.22;;;8.80;99.90;;;;;;4879149;28;88457;-68
2023/04/22 04:37:59;;;;;;;13.52;7.57;;;8.80;99.90;;;;;;4878345;28;87505;-68
2023/04/22 04:40:28;;;;;;;13.75;7.65;;;8.90;99.90;;;;;;4876885;28;88735;-70
2023/04/22 04:42:54;;;;;;;14.73;8.23;;;8.90;99.90;;;;;;4879141;28;89552;-69
2023/04/22 04:45:21;;;;;;;14.23;7.28;;;8.90;99.90;;;;;;4877968;28;87794;-69
2023/04/22 04:47:49;;;;;;;10.48;5.85;;;8.90;99.90;;;;;;4880869;28;89049;-69
2023/04/22 04:50:15;;;;;;;12.98;6.95;;;8.90;99.90;;;;;;4875265;28;88470;-69
2023/04/22 04:52:41;;;;;;;12.55;7.55;;;8.90;99.90;;;;;;4881081;28;87960;-69
2023/04/22 04:55:07;;;;;;;12.52;7.22;;;9.00;99.90;;;;;;4874802;28;87600;-69
2023/04/22 04:57:33;;;;;;;12.20;7.05;;;9.00;99.90;;;;;;4876117;28;87564;-69
2023/04/22 05:00:00;;;;;;;14.18;7.32;;;9.20;99.90;;;;;;4875540;28;89232;-69
2023/04/22 05:02:26;;;;;;;13.02;7.28;;;9.30;99.90;;;;;;4874612;28;88216;-70
2023/04/22 05:04:51;;;;;;;11.55;6.85;;;9.40;99.90;;;;;;4877399;28;87134;-69
2023/04/22 05:07:17;;;;;;;16.10;7.55;;;9.60;99.90;;;;;;4874895;28;87809;-68
2023/04/22 05:09:43;;;;;;;10.30;5.65;;;10.10;99.90;;;;;;4873135;28;89333;-69
2023/04/22 05:12:08;;;;;;;11.13;5.22;;;10.80;99.90;;;;;;4875127;28;88744;-69
2023/04/22 05:14:34;;;;;;;10.68;5.22;;;11.10;99.00;;;;;;4874194;28;89808;-69
2023/04/22 05:17:00;;;;;;;9.20;5.28;;;11.40;97.60;;;;;;4861852;28;86586;-69
2023/04/22 05:19:25;;;;;;;9.20;5.15;;;11.70;96.50;;;;;;4874512;28;87586;-68
2023/04/22 05:21:51;;;;;;;10.45;5.28;;;11.80;95.20;;;;;;4876907;28;87951;-68
2023/04/22 05:24:17;;;;;;;9.43;4.82;;;11.80;95.20;;;;;;4876172;28;88558;-69
2023/04/22 05:26:42;;;;;;;10.00;6.00;;;11.80;95.00;;;;;;4874188;28;89054;-68
2023/04/22 05:29:08;;;;;;;11.63;5.35;;;11.80;95.00;;;;;;4869980;28;88113;-69
2023/04/22 05:31:34;;;;;;;8.93;5.35;;;11.80;94.80;;;;;;4869599;28;89393;-70
2023/04/22 05:33:59;;;;;;;9.50;4.90;;;11.90;94.80;;;;;;4873955;28;87571;-69
2023/04/22 05:36:26;;;;;;;11.93;5.57;;;11.90;94.90;;;;;;4867005;28;89150;-71
2023/04/22 05:38:52;;;;;;;8.20;5.38;;;12.00;94.60;;;;;;4872935;28;88603;-70
2023/04/22 05:41:17;;;;;;;10.95;6.25;;;12.10;94.40;;;;;;4873531;28;88310;-70
2023/04/22 05:43:43;;;;;;;11.07;6.28;;;12.30;94.70;;;;;;4873308;28;87409;-69
2023/04/22 05:46:09;;;;;;;10.38;6.03;;;12.50;93.80;;;;;;4876161;28;87463;-70
2023/04/22 05:48:34;;;;;;;13.45;6.13;;;12.90;93.60;;;;;;4875464;28;90084;-69
2023/04/22 05:51:00;;;;;;;10.77;6.25;;;13.30;92.50;;;;;;4875512;28;88678;-70
2023/04/22 05:53:26;;;;;;;9.93;6.00;;;13.90;91.60;;;;;;4872651;28;87963;-69
2023/04/22 05:55:52;;;;;;;9.90;5.07;;;14.60;89.70;;;;;;4871836;28;87327;-71
2023/04/22 05:58:18;;;;;;;10.38;4.90;;;14.80;87.30;;;;;;4871803;28;87546;-70
2023/04/22 06:00:43;;;;;;;10.65;4.45;;;15.10;84.80;;;;;;4871692;28;89427;-70
2023/04/22 06:03:09;;;;;;;7.93;4.80;;;15.10;84.60;;;;;;4874309;28;87508;-70
2023/04/22 06:05:35;;;;;;;7.60;4.57;;;15.30;84.40;;;;;;4845620;28;87176;-71
2023/04/22 06:08:00;;;;;;;7.15;4.68;;;15.30;83.20;;;;;;4860220;28;88944;-71
2023/04/22 06:10:26;;;;;;;7.80;4.93;;;15.80;83.00;;;;;;4876647;28;89278;-70
2023/04/22 06:12:52;;;;;;;7.03;4.15;;;16.60;80.00;;;;;;4879554;28;88304;-71
2023/04/22 06:15:17;;;;;;;5.32;3.65;;;17.20;77.00;;;;;;4873224;28;87348;-71
2023/04/22 06:17:44;;;;;;;7.43;4.57;;;17.40;76.00;;;;;;4875277;28;87443;-70
2023/04/22 06:20:10;;;;;;;7.65;4.30;;;17.90;74.20;;;;;;4873857;28;88385;-71
2023/04/22 06:22:36;;;;;;;7.28;4.55;;;18.20;73.50;;;;;;4875901;28;87235;-71
2023/04/22 06:25:02;;;;;;;7.68;4.05;;;18.70;71.10;;;;;;4871029;28;87549;-72
2023/04/22 06:27:28;;;;;;;6.90;5.03;;;19.30;68.70;;;;;;4865509;28;87578;-72
2023/04/22 06:29:53;;;;;;;6.13;4.13;;;19.20;68.40;;;;;;4881610;28;86993;-72
2023/04/22 06:32:19;;;;;;;5.57;3.47;;;19.00;68.50;;;;;;4876957;28;87468;-73
2023/04/22 06:34:45;;;;;;;6.22;4.22;;;19.10;67.90;;;;;;4875299;28;87116;-72
2023/04/22 06:37:10;;;;;;;6.00;3.78;;;18.90;67.30;;;;;;4880206;28;89022;-72
2023/04/22 06:39:36;;;;;;;7.82;3.85;;;18.60;66.50;;;;;;4871446;28;88304;-71
2023/04/22 06:42:02;;;;;;;5.22;3.40;;;18.40;67.50;;;;;;4874257;28;88888;-73
2023/04/22 06:44:28;;;;;;;6.82;3.55;;;18.20;67.10;;;;;;4865060;28;87396;-72
2023/04/22 06:46:54;;;;;;;6.13;4.00;;;18.10;67.30;;;;;;4878902;28;88127;-73
2023/04/22 06:49:20;;;;;;;9.85;4.18;;;18.00;68.30;;;;;;4868630;28;88326;-71
2023/04/22 06:51:45;;;;;;;6.25;3.53;;;18.20;68.70;;;;;;4884198;28;87281;-71
2023/04/22 06:54:11;;;;;;;8.20;3.00;;;19.20;66.10;;;;;;4869892;28;86731;-71
2023/04/22 06:56:37;;;;;;;5.75;3.67;;;20.20;64.30;;;;;;4872958;28;88205;-71
2023/04/22 06:59:03;;;;;;;6.32;3.47;;;20.60;61.00;;;;;;4876034;28;87581;-71
2023/04/22 07:01:28;;;;;;;4.15;2.65;;;20.50;62.00;;;;;;4879939;28;88454;-71
2023/04/22 07:03:54;;;;;;;4.10;2.38;;;20.40;60.10;;;;;;4880391;28;87377;-71
2023/04/22 07:06:20;;;;;;;2.55;1.02;;;20.10;60.50;;;;;;4881443;28;87705;-70
2023/04/22 07:08:45;;;;;;;4.53;1.00;;;20.20;56.90;;;;;;4881195;28;87280;-70
2023/04/22 07:11:11;;;;;;;1.17;0.40;;;20.20;54.50;;;;;;4876148;28;88750;-71
2023/04/22 07:13:37;;;;;;;1.30;0.40;;;20.20;51.20;;;;;;4880727;28;87480;-72
2023/04/22 07:16:02;;;;;;;1.45;0.70;;;20.10;52.20;;;;;;4880746;28;88224;-71
2023/04/22 07:18:28;;;;;;;1.50;0.40;;;20.00;51.50;;;;;;4880675;28;87690;-71
2023/04/22 07:20:54;;;;;;;1.90;0.22;;;20.00;52.50;;;;;;4880359;28;88533;-70
2023/04/22 07:23:20;;;;;;;3.90;0.52;;;20.40;51.50;;;;;;4881222;28;87369;-71
2023/04/22 07:25:45;;;;;;;6.50;0.40;;;20.60;50.10;;;;;;4880348;28;88656;-71
2023/04/22 07:28:11;;;;;;;1.60;0.50;;;21.00;49.40;;;;;;4887352;28;89098;-72
2023/04/22 07:30:37;;;;;;;3.55;0.65;;;22.50;49.20;;;;;;4880369;28;87264;-72
2023/04/22 07:33:02;;;;;;;1.70;0.90;;;24.70;45.60;;;;;;4880275;28;87444;-72
2023/04/22 07:35:29;;;;;;;2.03;0.82;;;26.30;43.50;;;;;;4880441;28;87902;-72
2023/04/22 07:37:55;;;;;;;4.03;1.08;;;27.30;41.00;;;;;;4880983;28;87346;-73
2023/04/22 07:40:21;;;;;;;2.72;0.82;;;28.20;41.60;;;;;;4869152;28;87587;-73
2023/04/22 07:42:46;;;;;;;2.55;1.73;;;29.30;40.30;;;;;;4863617;28;86842;-73
2023/04/22 07:45:12;;;;;;;3.60;3.10;;;29.50;39.40;;;;;;4878835;28;88992;-73
2023/04/22 07:47:38;;;;;;;5.63;3.47;;;29.20;42.90;;;;;;4879222;28;87718;-73
2023/04/22 07:50:04;;;;;;;4.47;3.70;;;29.00;44.40;;;;;;4880295;28;87971;-73
2023/04/22 07:52:30;;;;;;;4.93;2.90;;;30.00;43.60;;;;;;4881419;28;87093;-72
2023/04/22 07:54:56;;;;;;;4.38;2.95;;;31.00;42.80;;;;;;4879450;28;88569;-74
2023/04/22 07:57:22;;;;;;;6.22;3.25;;;30.90;41.60;;;;;;4886088;28;87357;-74
2023/04/22 07:59:51;;;;;;;7.47;3.83;;;31.20;41.40;;;;;;4880297;28;87343;-74
2023/04/22 08:02:17;;;;;;;49.30;12.70;;;31.20;40.20;;;;;;4879890;28;87699;-74
2023/04/22 08:04:43;;;;;;;4.10;3.05;;;31.00;40.90;;;;;;4870914;28;87342;-74
2023/04/22 08:07:09;;;;;;;12.65;5.25;;;31.20;40.80;;;;;;4880216;28;87241;-74
2023/04/22 08:09:35;;;;;;;8.68;4.65;;;32.00;40.20;;;;;;4882860;28;87136;-74
2023/04/22 08:12:01;;;;;;;13.13;5.55;;;32.50;38.60;;;;;;4881206;28;87474;-75
2023/04/22 08:14:27;;;;;;;11.25;4.82;;;32.80;38.20;;;;;;4880775;28;88636;-74
2023/04/22 08:16:53;;;;;;;10.70;4.78;;;33.20;38.20;;;;;;4883562;28;88291;-74
2023/04/22 08:19:19;;;;;;;8.27;4.50;;;33.10;38.80;;;;;;4881713;28;87081;-74
2023/04/22 08:21:45;;;;;;;12.18;5.93;;;33.40;37.80;;;;;;4879680;28;89173;-74
2023/04/22 08:24:11;;;;;;;15.68;6.82;;;34.20;37.00;;;;;;4891768;28;87407;-73
2023/04/22 08:26:38;;;;;;;8.93;5.35;;;33.90;37.00;;;;;;4883833;28;87452;-75
2023/04/22 08:29:04;;;;;;;14.32;6.18;;;33.70;36.70;;;;;;4883321;28;87244;-75
2023/04/22 08:31:30;;;;;;;16.42;7.00;;;33.30;37.90;;;;;;4884272;28;86634;-73
2023/04/22 08:33:56;;;;;;;7.72;5.18;;;34.00;36.80;;;;;;4883783;28;88598;-74
2023/04/22 08:36:24;;;;;;;5.60;4.90;;;35.10;35.70;;;;;;4882240;28;88987;-75
2023/04/22 08:38:50;;;;;;;;;;;35.30;35.60;;;;;;4883912;28;88505;-74
2023/04/22 08:41:20;;;;;;;6.18;5.38;;;35.10;35.50;;;;;;4884957;28;86973;-74
2023/04/22 08:43:47;;;;;;;6.28;5.05;;;35.20;35.50;;;;;;4873636;28;88362;-75
2023/04/22 08:46:16;;;;;;;6.00;4.90;;;35.20;35.60;;;;;;4882952;28;88467;-74
2023/04/22 08:48:42;;;;;;;6.65;5.28;;;35.20;35.60;;;;;;4882929;28;87515;-74
2023/04/22 08:51:08;;;;;;;7.15;5.93;;;34.40;35.70;;;;;;4878424;28;87521;-75
2023/04/22 08:53:34;;;;;;;6.78;5.63;;;34.20;36.00;;;;;;4880508;28;87765;-73
2023/04/22 08:56:00;;;;;;;6.85;5.25;;;34.40;36.70;;;;;;4880235;28;87304;-74
2023/04/22 08:58:27;;;;;;;7.28;4.78;;;35.30;36.00;;;;;;4883726;28;87373;-74
2023/04/22 09:00:54;;;;;;;6.53;5.75;;;35.30;35.10;;;;;;4882097;28;87554;-74
2023/04/22 09:03:21;;;;;;;6.22;5.40;;;35.20;35.50;;;;;;4881365;28;88612;-73
2023/04/22 09:05:50;;;;;;;6.22;5.32;;;34.80;36.20;;;;;;4885483;28;88858;-74
2023/04/22 09:08:16;;;;;;;7.57;5.57;;;34.30;35.70;;;;;;4881053;28;87009;-74
2023/04/22 09:10:42;;;;;;;6.70;5.85;;;34.40;35.90;;;;;;4873309;28;87521;-74
2023/04/22 09:13:09;;;;;;;6.63;5.20;;;34.50;35.90;;;;;;4871439;28;89451;-76
2023/04/22 09:15:35;;;;;;;6.85;5.72;;;34.30;35.70;;;;;;4872602;28;88222;-73
2023/04/22 09:18:03;;;;;;;6.95;5.97;;;34.20;35.90;;;;;;4881199;28;87419;-75
2023/04/22 09:20:29;;;;;;;8.60;5.70;;;34.40;36.80;;;;;;4878010;28;86432;-79
2023/04/22 09:23:00;;;;;;;7.18;5.65;;;34.70;35.60;;;;;;4878594;28;87709;-73
2023/04/22 09:25:26;;;;;;;8.30;6.65;;;34.60;35.30;;;;;;4876329;28;87635;-73
2023/04/22 09:27:55;;;;;;;8.88;5.75;;;34.80;36.30;;;;;;4871674;28;88629;-72
2023/04/22 09:30:26;;;;;;;9.35;7.00;;;35.20;35.50;;;;;;4869800;28;88773;-74
2023/04/22 09:32:58;;;;;;;9.05;6.70;;;35.80;35.40;;;;;;4875336;28;89168;-71
2023/04/22 09:35:27;;;;;;;9.73;7.07;;;35.50;34.20;;;;;;4874528;28;89383;-71
2023/04/22 09:37:54;;;;;;;8.73;5.72;;;35.30;35.00;;;;;;4882639;28;87401;-71
2023/04/22 09:40:20;;;;;;;7.43;6.28;;;35.30;34.80;;;;;;4882899;28;87400;-71
2023/04/22 09:42:57;;;;;;;8.25;5.75;;;35.50;34.60;;;;;;4880298;28;87747;-71
2023/04/22 09:45:39;;;;;;;11.05;6.43;;;35.10;35.70;;;;;;4882416;28;87370;-70
2023/04/22 09:48:10;;;;;;;12.15;5.68;;;34.70;35.60;;;;;;4882752;28;87517;-71
2023/04/22 09:50:38;;;;;;;8.63;5.93;;;34.60;34.90;;;;;;4882889;28;87557;-71
2023/04/22 09:53:09;;;;;;;6.95;5.80;;;34.90;34.30;;;;;;4881436;28;89053;-71
2023/04/22 09:55:38;;;;;;;8.05;6.72;;;35.30;35.80;;;;;;4875331;28;88910;-72
2023/04/22 09:58:09;;;;;;;6.63;5.72;;;35.60;35.60;;;;;;4882193;28;87346;-73
2023/04/22 10:00:43;;;;;;;7.30;4.90;;;35.50;33.60;;;;;;4882690;28;87402;-71
2023/04/22 10:03:09;;;;;;;9.07;5.35;;;35.40;34.50;;;;;;4875307;28;88239;-71
2023/04/22 10:05:36;;;;;;;7.63;5.90;;;35.00;34.10;;;;;;4881510;28;87992;-71
2023/04/22 10:08:06;;;;;;;7.32;6.00;;;33.70;36.30;;;;;;4881994;28;87282;-71
2023/04/22 10:10:32;;;;;;;6.97;5.90;;;33.30;37.30;;;;;;4888204;28;86601;-73
2023/04/22 10:13:03;;;;;;;9.68;7.13;;;32.80;37.60;;;;;;4881880;28;88133;-72
2023/04/22 10:15:47;;;;;;;8.52;6.07;;;31.90;39.20;;;;;;4881789;28;87454;-72
2023/04/22 10:18:17;;;;;;;7.32;5.47;;;30.30;40.30;;;;;;4871854;28;88138;-72
2023/04/22 10:20:44;;;;;;;6.88;5.47;;;29.00;42.70;;;;;;4881970;28;87268;-72
2023/04/22 10:23:31;;;;;;;8.93;6.38;;;28.40;44.40;;;;;;4881728;28;88345;-72
2023/04/22 10:25:57;;;;;;;10.45;6.20;;;27.80;44.30;;;;;;4881644;28;87584;-72
2023/04/22 10:28:26;;;;;;;9.07;5.95;;;27.50;45.20;;;;;;4881982;28;87265;-72
2023/04/22 10:30:52;;;;;;;9.73;6.55;;;27.00;45.90;;;;;;4879379;28;89160;-72
2023/04/22 10:33:26;;;;;;;11.45;6.22;;;26.30;46.70;;;;;;4881950;28;87702;-73
2023/04/22 10:36:13;;;;;;;9.20;5.72;;;25.90;48.30;;;;;;4881336;28;88027;-71
2023/04/22 10:39:01;;;;;;;10.98;6.32;;;25.50;47.70;;;;;;4882077;28;87684;-72
2023/04/22 10:41:32;;;;;;;8.38;4.90;;;25.10;48.10;;;;;;4875504;28;87632;-71
2023/04/22 10:44:05;;;;;;;9.00;5.57;;;24.80;46.70;;;;;;4881210;28;89210;-72
2023/04/22 10:46:36;;;;;;;7.95;4.97;;;24.40;48.80;;;;;;4881805;28;88289;-72
2023/04/22 10:49:14;;;;;;;9.82;5.68;;;24.40;49.70;;;;;;4881893;28;87649;-71
2023/04/22 10:51:45;;;;;;;6.65;4.32;;;23.90;51.20;;;;;;4882419;28;87477;-72
2023/04/22 10:54:35;;;;;;;8.85;5.50;;;24.00;50.00;;;;;;4879886;28;87676;-72
2023/04/22 10:57:07;;;;;;;9.20;4.80;;;24.00;50.70;;;;;;4881662;28;87968;-72
2023/04/22 10:59:41;;;;;;;11.25;6.20;;;24.00;50.60;;;;;;4880114;28;87107;-72
2023/04/22 11:02:10;;;;;;;8.30;4.85;;;24.10;50.80;;;;;;4881903;28;86769;-72
2023/04/22 11:04:37;;;;;;;8.07;4.88;;;24.10;50.10;;;;;;4881181;28;88160;-72
2023/04/22 11:07:26;;;;;;;10.07;5.63;;;24.10;50.40;;;;;;4880069;28;87806;-71
2023/04/22 11:09:57;;;;;;;;;;;24.10;51.70;;;;;;4875907;28;88581;-71
2023/04/22 11:12:38;;;;;;;8.63;5.47;;;23.80;52.30;;;;;;4884768;28;87435;-70
2023/04/22 11:15:12;;;;;;;6.63;3.85;;;23.90;51.20;;;;;;4880775;28;87497;-72
2023/04/22 11:17:41;;;;;;;8.15;4.40;;;24.00;51.80;;;;;;4879113;28;89067;-72
2023/04/22 11:20:07;;;;;;;8.02;4.80;;;24.10;50.30;;;;;;4881138;28;88250;-72
2023/04/22 11:22:38;;;;;;;11.10;5.93;;;24.00;51.60;;;;;;4868190;28;87485;-72
2023/04/22 11:25:05;;;;;;;8.85;4.75;;;24.10;52.40;;;;;;4880905;28;88237;-72
2023/04/22 11:27:31;;;;;;;9.40;4.90;;;24.00;50.50;;;;;;4879751;28;87991;-71
2023/04/22 11:30:01;;;;;;;8.48;5.60;;;24.10;52.10;;;;;;4879750;28;87489;-72
2023/04/22 11:32:27;;;;;;;8.60;5.50;;;24.10;52.20;;;;;;4880755;28;87573;-72
2023/04/22 11:34:53;;;;;;;8.73;5.18;;;24.00;51.30;;;;;;4880207;28;88469;-71
2023/04/22 11:37:19;;;;;;;10.00;6.15;;;23.90;50.60;;;;;;4881174;28;88262;-71
2023/04/22 11:39:45;;;;;;;10.50;6.20;;;23.90;50.50;;;;;;4881270;28;87519;-72
2023/04/22 11:42:14;;;;;;;8.45;5.53;;;24.00;51.10;;;;;;4866106;28;87578;-72
2023/04/22 11:44:43;;;;;;;7.55;4.97;;;24.00;50.70;;;;;;4872943;28;87694;-72
2023/04/22 11:47:09;;;;;;;9.40;5.40;;;23.90;49.90;;;;;;4880313;28;88919;-71
2023/04/22 11:49:35;;;;;;;10.32;5.93;;;24.00;52.20;;;;;;4881095;28;87166;-72
2023/04/22 11:52:01;;;;;;;8.50;4.93;;;23.90;51.60;;;;;;4880417;28;86690;-72
2023/04/22 11:54:31;;;;;;;9.90;4.75;;;23.70;50.90;;;;;;4879723;28;88530;-71
2023/04/22 11:56:57;;;;;;;9.82;5.70;;;23.80;52.20;;;;;;4880614;28;88267;-71
2023/04/22 11:59:25;;;;;;;7.35;4.65;;;24.00;51.70;;;;;;4880435;28;88075;-72
2023/04/22 12:01:51;;;;;;;9.05;5.90;;;23.90;50.70;;;;;;4879267;28;87425;-72
2023/04/22 12:04:20;;;;;;;8.48;4.25;;;23.80;52.40;;;;;;4881330;28;88128;-72
2023/04/22 12:06:46;;;;;;;;;;;23.70;49.80;;;;;;4880161;28;87816;-71
2023/04/22 12:09:12;;;;;;;8.80;5.85;;;23.50;52.00;;;;;;4882028;28;87421;-72
2023/04/22 12:11:38;;;;;;;8.57;5.05;;;23.50;53.40;;;;;;4881513;28;87011;-73
2023/04/22 12:14:06;;;;;;;10.77;5.88;;;23.60;52.30;;;;;;4880052;28;87420;-71
2023/04/22 12:16:41;;;;;;;8.43;5.95;;;23.50;53.50;;;;;;4880637;28;87956;-72
2023/04/22 12:19:07;;;;;;;9.35;6.90;;;23.40;53.70;;;;;;4874119;28;87523;-71
2023/04/22 12:21:33;;;;;;;12.07;7.70;;;23.40;55.20;;;;;;4880722;28;88079;-70
2023/04/22 12:24:04;;;;;;;11.20;7.15;;;23.30;53.40;;;;;;4879871;28;89251;-72
2023/04/22 12:26:30;;;;;;;12.48;6.03;;;23.20;54.20;;;;;;4878046;28;87523;-72
2023/04/22 12:28:58;;;;;;;9.27;5.47;;;23.20;54.00;;;;;;4886226;28;87539;-72
2023/04/22 12:31:24;;;;;;;7.60;4.13;;;23.40;53.80;;;;;;4891923;28;87352;-71
2023/04/22 12:33:50;;;;;;;12.15;4.28;;;23.30;53.60;;;;;;4880022;28;88008;-71
2023/04/22 12:36:16;;;;;;;8.15;4.40;;;23.40;54.60;;;;;;4876178;28;88259;-71
2023/04/22 12:38:42;;;;;;;8.18;4.82;;;23.60;53.30;;;;;;4868331;28;89483;-70
2023/04/22 12:41:08;;;;;;;7.47;5.05;;;23.60;52.70;;;;;;4865331;28;87564;-71
2023/04/22 12:43:35;;;;;;;6.80;3.88;;;23.70;52.90;;;;;;4873205;28;89534;-72
2023/04/22 12:46:06;;;;;;;6.03;3.47;;;23.80;53.40;;;;;;4866572;28;87594;-73
2023/04/22 12:48:32;;;;;;;9.52;4.32;;;24.00;52.40;;;;;;4875276;28;88654;-72
2023/04/22 12:50:58;;;;;;;6.22;3.33;;;24.00;51.20;;;;;;4869893;28;87972;-70
2023/04/22 12:53:25;;;;;;;4.93;3.20;;;23.90;50.00;;;;;;4867721;28;87696;-71
2023/04/22 12:55:51;;;;;;;4.30;2.35;;;23.80;50.00;;;;;;4872688;28;89029;-72
2023/04/22 12:58:17;;;;;;;6.18;2.67;;;23.80;48.30;;;;;;4875218;28;88331;-73
2023/04/22 13:00:42;;;;;;;9.07;3.53;;;23.80;50.00;;;;;;4880317;28;87767;-72
2023/04/22 13:03:08;;;;;;;7.13;3.25;;;23.90;49.00;;;;;;4881792;28;87754;-72
2023/04/22 13:05:34;;;;;;;4.97;2.50;;;23.70;50.80;;;;;;4886994;28;87258;-71
2023/04/22 13:08:00;;;;;;;6.10;3.35;;;23.80;48.50;;;;;;4890544;28;87522;-72
2023/04/22 13:10:27;;;;;;;4.22;2.42;;;23.80;48.70;;;;;;4880666;28;87566;-72
2023/04/22 13:12:53;;;;;;;3.42;2.00;;;23.70;49.70;;;;;;4881502;28;90286;-72
2023/04/22 13:15:20;;;;;;;4.40;2.28;;;23.60;48.40;;;;;;4884184;28;88840;-71
2023/04/22 13:17:46;;;;;;;4.95;1.92;;;23.70;47.10;;;;;;4876874;28;88589;-72
2023/04/22 13:20:13;;;;;;;4.70;1.80;;;23.70;47.10;;;;;;4876677;28;87154;-72
2023/04/22 13:22:39;;;;;;;8.38;2.60;;;23.40;45.90;;;;;;4870215;28;88702;-73
2023/04/22 13:25:08;;;;;;;5.97;3.45;;;23.20;48.60;;;;;;4869202;28;88995;-72
2023/04/22 13:27:34;;;;;;;7.60;3.35;;;23.20;50.60;;;;;;4870180;28;88908;-72
2023/04/22 13:30:00;;;;;;;5.28;2.63;;;23.20;51.40;;;;;;4878419;28;88258;-72
2023/04/22 13:32:26;;;;;;;5.82;3.03;;;23.30;51.40;;;;;;4879605;28;88227;-72
2023/04/22 13:34:51;;;;;;;5.68;2.38;;;23.20;50.60;;;;;;4883765;28;87695;-73
2023/04/22 13:37:19;;;;;;;4.15;2.15;;;23.30;50.90;;;;;;4880285;28;88344;-72
2023/04/22 13:39:45;;;;;;;5.07;2.60;;;23.40;49.90;;;;;;4890727;28;87375;-73
2023/04/22 13:42:11;;;;;;;6.10;2.97;;;23.50;48.80;;;;;;4878758;28;88742;-73
2023/04/22 13:44:36;;;;;;;2.67;1.05;;;23.60;49.40;;;;;;4880739;28;87889;-72
2023/04/22 13:47:03;;;;;;;3.55;1.65;;;23.70;46.50;;;;;;4878929;28;89182;-72
2023/04/22 13:49:29;;;;;;;7.38;2.03;;;23.90;47.40;;;;;;4879336;28;87753;-73
2023/04/22 13:51:55;;;;;;;6.32;1.75;;;23.80;44.70;;;;;;4872787;28;87818;-71
2023/04/22 13:54:21;;;;;;;2.63;0.82;;;23.70;46.30;;;;;;4873514;28;87753;-73
2023/04/22 13:56:47;;;;;;;5.38;2.13;;;23.70;45.50;;;;;;4868288;28;89631;-74
2023/04/22 13:59:13;;;;;;;3.28;0.98;;;23.70;45.20;;;;;;4887817;28;87520;-74
2023/04/22 14:01:39;;;;;;;3.97;1.25;;;23.60;44.20;;;;;;4883589;28;89489;-72
2023/04/22 14:04:05;;;;;;;8.68;2.05;;;23.60;46.50;;;;;;4879992;28;88695;-74
2023/04/22 14:06:31;;;;;;;2.67;0.82;;;23.70;48.20;;;;;;4876257;28;87779;-75
2023/04/22 14:08:57;;;;;;;3.58;1.40;;;23.70;45.30;;;;;;4880489;28;87589;-73
2023/04/22 14:11:22;;;;;;;4.60;2.40;;;23.70;47.00;;;;;;4878685;28;87808;-75
2023/04/22 14:13:48;;;;;;;5.22;0.95;;;23.80;47.10;;;;;;4878349;28;88788;-73
2023/04/22 14:16:14;;;;;;;2.78;1.20;;;23.70;46.50;;;;;;4877364;28;87998;-74
2023/04/22 14:18:40;;;;;;;2.80;1.05;;;23.70;46.80;;;;;;4873118;28;86683;-73
2023/04/22 14:21:10;;;;;;;5.97;2.55;;;23.70;49.00;;;;;;4883493;28;88655;-72
2023/04/22 14:23:40;;;;;;;6.35;1.65;;;23.50;49.10;;;;;;4861873;28;91221;-72
2023/04/22 14:26:08;;;;;;;19.05;6.95;;;23.60;50.10;;;;;;4882264;28;89794;-73
2023/04/22 14:28:34;;;;;;;8.38;4.25;;;23.70;47.90;;;;;;4875264;28;87154;-73
2023/04/22 14:31:00;;;;;;;3.55;1.67;;;23.60;48.30;;;;;;4875675;28;88149;-72
2023/04/22 14:33:27;;;;;;;4.07;1.92;;;23.50;48.60;;;;;;4879767;28;88179;-72
2023/04/22 14:35:53;;;;;;;6.10;2.58;;;23.50;48.90;;;;;;4881029;28;87541;-72
2023/04/22 14:38:20;;;;;;;3.63;1.73;;;23.50;51.50;;;;;;4874415;28;88792;-72
2023/04/22 14:40:46;;;;;;;5.90;1.60;;;23.40;50.70;;;;;;4878966;28;88249;-72
2023/04/22 14:43:13;;;;;;;4.63;2.15;;;23.20;50.30;;;;;;4880405;28;87704;-72
2023/04/22 14:45:39;;;;;;;5.65;3.15;;;23.20;51.20;;;;;;4877443;28;87932;-72
2023/04/22 14:48:05;;;;;;;5.70;2.30;;;23.10;52.80;;;;;;4877154;28;87437;-73
2023/04/22 14:50:31;;;;;;;9.13;2.92;;;23.10;51.30;;;;;;4876831;28;89123;-73
2023/04/22 14:52:57;;;;;;;5.55;2.38;;;22.90;52.30;;;;;;4877820;28;87995;-73
2023/04/22 14:55:23;;;;;;;3.65;1.92;;;22.90;52.60;;;;;;4880520;28;87441;-72
2023/04/22 14:57:51;;;;;;;4.55;2.40;;;22.90;53.40;;;;;;4877793;28;87494;-73
2023/04/22 15:00:17;;;;;;;5.13;2.28;;;22.90;54.10;;;;;;4864244;28;88371;-73
2023/04/22 15:02:43;;;;;;;4.30;1.55;;;22.90;53.20;;;;;;4867454;28;88542;-74
2023/04/22 15:05:09;;;;;;;7.22;1.52;;;22.80;53.20;;;;;;4880333;28;87503;-72
2023/04/22 15:07:35;;;;;;;6.10;1.88;;;22.80;53.70;;;;;;4878369;28;86363;-71
2023/04/22 15:10:01;;;;;;;5.85;1.95;;;22.80;53.10;;;;;;4853642;28;88357;-71
2023/04/22 15:12:27;;;;;;;5.53;2.30;;;22.80;54.80;;;;;;4877956;28;88494;-71
2023/04/22 15:14:53;;;;;;;4.90;1.77;;;22.70;54.70;;;;;;4878329;28;88777;-72
2023/04/22 15:17:19;;;;;;;4.60;1.98;;;22.50;56.20;;;;;;4880178;28;87377;-72
2023/04/22 15:19:45;;;;;;;4.00;1.52;;;22.50;54.70;;;;;;4869608;28;89423;-72
2023/04/22 15:22:11;;;;;;;5.28;1.23;;;22.50;53.10;;;;;;4878213;28;87411;-73
2023/04/22 15:24:36;;;;;;;3.28;1.02;;;22.50;55.00;;;;;;4873614;28;88249;-73
2023/04/22 15:27:02;;;;;;;4.53;1.38;;;22.60;52.20;;;;;;4879706;28;87232;-73
2023/04/22 15:29:28;;;;;;;2.95;1.30;;;22.60;52.20;;;;;;4876893;28;89806;-73
2023/04/22 15:31:55;;;;;;;2.70;0.90;;;22.70;52.60;;;;;;4880244;28;87324;-73
2023/04/22 15:34:21;;;;;;;2.75;1.08;;;22.60;50.70;;;;;;4875973;28;87045;-73
2023/04/22 15:36:47;;;;;;;3.55;1.00;;;22.50;50.20;;;;;;4877063;28;88416;-73
2023/04/22 15:39:13;;;;;;;3.85;1.60;;;22.50;50.80;;;;;;4878178;28;88488;-73
2023/04/22 15:41:38;;;;;;;3.20;1.15;;;22.50;51.00;;;;;;4876147;28;88898;-74
2023/04/22 15:44:04;;;;;;;2.20;0.90;;;22.50;50.90;;;;;;4873058;28;88071;-73
2023/04/22 15:46:33;;;;;;;4.72;1.40;;;22.40;50.30;;;;;;4867499;28;88138;-72
2023/04/22 15:48:59;;;;;;;4.25;1.58;;;22.20;51.30;;;;;;4876521;28;87660;-72